Time;durP1;ratioP1;P1;durP2;ratioP2;P2;SDS_P1;SDS_P2;PMS_P1;PMS_P2;Temp;Humidity;BMP_temperature;BMP_pressure;BME280_temperature;BME280_humidity;BME280_pressure;Samples;Min_cycle;Max_cycle;Signal;HPM_P1;HPM_P2
2023/10/01 00:02:45;;;;;;;10.30;6.00;;;;;;;;;;10339878;28;20056;-71
2023/10/01 00:07:42;;;;;;;14.38;6.63;;;;;;;;;;10334051;28;20048;-71
2023/10/01 00:12:44;;;;;;;13.75;6.00;;;;;;;;;;10327072;28;20463;-71
2023/10/01 00:17:41;;;;;;;10.98;5.78;;;;;;;;;;10334585;28;20048;-71
2023/10/01 00:22:38;;;;;;;10.13;5.65;;;;;;;;;;10340786;28;20124;-71
2023/10/01 00:27:34;;;;;;;7.32;5.65;;;;;;;;;;10344274;28;20454;-71
2023/10/01 00:32:30;;;;;;;11.25;6.47;;;;;;;;;;10351844;28;20052;-71
2023/10/01 00:37:28;;;;;;;11.60;5.85;;;;;;;;;;10349283;28;20566;-71
2023/10/01 00:42:25;;;;;;;16.92;5.80;;;;;;;;;;10337807;28;20094;-71
2023/10/01 00:47:21;;;;;;;9.30;5.65;;;;;;;;;;10339520;28;20435;-72
2023/10/01 00:52:18;;;;;;;15.63;5.53;;;;;;;;;;10335177;28;20040;-71
2023/10/01 00:57:15;;;;;;;9.85;6.00;;;;;;;;;;10341596;28;20058;-71
2023/10/01 01:02:15;;;;;;;12.15;6.68;;;;;;;;;;10337521;28;20099;-71
2023/10/01 01:07:23;;;;;;;12.30;6.57;;;;;;;;;;10345217;28;20044;-71
2023/10/01 01:12:21;;;;;;;10.38;6.90;;;;;;;;;;10328712;28;20050;-71
2023/10/01 01:17:18;;;;;;;9.85;6.57;;;;;;;;;;10338439;28;20048;-71
2023/10/01 01:22:28;;;;;;;11.93;6.32;;;;;;;;;;10353190;28;20683;-71
2023/10/01 01:27:24;;;;;;;8.98;6.38;;;;;;;;;;10326500;28;20106;-71
2023/10/01 01:32:20;;;;;;;10.20;6.25;;;;;;;;;;10334531;28;20097;-71
2023/10/01 01:37:30;;;;;;;8.70;6.90;;;;;;;;;;10328515;28;20048;-71
2023/10/01 01:42:28;;;;;;;12.40;6.55;;;;;;;;;;10336087;28;20520;-72
2023/10/01 01:47:25;;;;;;;11.88;7.25;;;;;;;;;;10334488;28;20051;-71
2023/10/01 01:52:22;;;;;;;9.63;6.68;;;;;;;;;;10337107;28;20504;-71
2023/10/01 01:57:18;;;;;;;12.77;6.97;;;;;;;;;;10331902;28;20044;-71
2023/10/01 02:02:14;;;;;;;7.07;6.18;;;;;;;;;;10337242;28;20044;-71
2023/10/01 02:07:12;;;;;;;10.05;6.85;;;;;;;;;;10336633;28;20082;-71
2023/10/01 02:12:23;;;;;;;9.35;6.90;;;;;;;;;;10345039;28;20113;-71
2023/10/01 02:17:21;;;;;;;10.07;7.10;;;;;;;;;;10319932;28;20044;-71
2023/10/01 02:22:18;;;;;;;14.85;8.25;;;;;;;;;;10337997;28;20474;-71
2023/10/01 02:27:16;;;;;;;11.18;7.22;;;;;;;;;;10337076;28;20055;-71
2023/10/01 02:32:14;;;;;;;12.52;7.65;;;;;;;;;;10337515;28;20629;-72
2023/10/01 02:37:15;;;;;;;9.93;7.63;;;;;;;;;;10327667;28;20052;-71
2023/10/01 02:42:21;;;;;;;10.90;7.75;;;;;;;;;;10328037;28;20416;-71
2023/10/01 02:47:22;;;;;;;9.18;7.57;;;;;;;;;;10348270;28;20040;-71
2023/10/01 02:52:22;;;;;;;9.48;7.07;;;;;;;;;;10328643;28;20516;-70
2023/10/01 02:57:23;;;;;;;9.77;6.80;;;;;;;;;;10344583;28;20040;-71
2023/10/01 03:02:24;;;;;;;11.80;7.88;;;;;;;;;;10328354;28;20173;-71
2023/10/01 03:07:24;;;;;;;18.40;9.27;;;;;;;;;;10345473;28;20047;-71
2023/10/01 03:12:24;;;;;;;13.25;8.40;;;;;;;;;;10348856;28;20056;-71
2023/10/01 03:17:20;;;;;;;12.70;8.68;;;;;;;;;;10336366;28;20044;-71
2023/10/01 03:22:23;;;;;;;16.08;9.32;;;;;;;;;;10358220;28;20054;-71
2023/10/01 03:27:20;;;;;;;13.32;8.95;;;;;;;;;;10335122;28;20090;-71
2023/10/01 03:32:29;;;;;;;13.18;8.65;;;;;;;;;;10344700;28;20119;-71
2023/10/01 03:37:28;;;;;;;21.95;8.90;;;;;;;;;;10337280;28;20056;-71
2023/10/01 03:42:24;;;;;;;17.02;10.52;;;;;;;;;;10336326;28;20048;-71
2023/10/01 03:47:21;;;;;;;15.15;9.65;;;;;;;;;;10323257;28;20543;-71
2023/10/01 03:52:20;;;;;;;16.85;9.07;;;;;;;;;;10338922;28;20051;-71
2023/10/01 03:57:17;;;;;;;15.75;9.15;;;;;;;;;;10341089;28;20526;-71
2023/10/01 04:07:43;;;;;;;18.42;10.23;;;;;;;;;;10338140;28;20428;-70
2023/10/01 04:12:44;;;;;;;19.90;10.23;;;;;;;;;;10339158;28;20521;-71
2023/10/01 04:18:08;;;;;;;16.77;10.48;;;;;;;;;;10333953;28;20084;-71
2023/10/01 04:23:04;;;;;;;17.15;10.27;;;;;;;;;;10326184;28;20092;-71
2023/10/01 04:28:00;;;;;;;17.80;11.00;;;;;;;;;;10319973;28;20071;-71
2023/10/01 04:32:58;;;;;;;17.08;11.63;;;;;;;;;;10335998;28;20422;-71
2023/10/01 04:37:55;;;;;;;15.98;12.43;;;;;;;;;;10309687;28;20040;-71
2023/10/01 04:42:51;;;;;;;19.65;11.73;;;;;;;;;;10332220;28;20094;-71
2023/10/01 04:47:48;;;;;;;21.20;13.18;;;;;;;;;;10340109;28;20048;-71
2023/10/01 04:52:45;;;;;;;15.85;11.57;;;;;;;;;;10349164;28;20046;-71
2023/10/01 04:57:41;;;;;;;23.45;12.10;;;;;;;;;;10330936;28;20109;-72
2023/10/01 05:02:43;;;;;;;18.73;12.32;;;;;;;;;;10336502;28;20478;-71
2023/10/01 05:07:39;;;;;;;17.75;11.77;;;;;;;;;;10318810;28;20105;-71
2023/10/01 05:12:43;;;;;;;20.67;12.65;;;;;;;;;;10334556;28;20075;-71
2023/10/01 05:17:40;;;;;;;23.50;12.18;;;;;;;;;;10337947;28;20460;-71
2023/10/01 05:22:46;;;;;;;23.02;13.07;;;;;;;;;;10343606;28;20558;-71
2023/10/01 05:27:44;;;;;;;19.92;12.95;;;;;;;;;;10339430;28;20139;-71
2023/10/01 05:32:51;;;;;;;21.48;13.77;;;;;;;;;;10348690;28;20052;-71
2023/10/01 05:37:49;;;;;;;20.25;13.77;;;;;;;;;;10328909;28;20051;-71
2023/10/01 05:42:49;;;;;;;17.73;13.05;;;;;;;;;;10332201;28;20075;-71
2023/10/01 05:47:51;;;;;;;17.73;13.05;;;;;;;;;;10332680;28;20059;-71
2023/10/01 05:52:50;;;;;;;20.00;13.80;;;;;;;;;;10330816;28;20055;-71
2023/10/01 05:57:50;;;;;;;19.70;13.95;;;;;;;;;;10345225;28;20059;-71
2023/10/01 06:03:00;;;;;;;21.25;14.27;;;;;;;;;;10332314;28;21374;-71
2023/10/01 06:07:57;;;;;;;17.17;13.75;;;;;;;;;;10321156;28;20059;-71
2023/10/01 06:12:56;;;;;;;16.20;14.43;;;;;;;;;;10336404;28;20105;-71
2023/10/01 06:17:52;;;;;;;20.52;14.40;;;;;;;;;;10340204;28;20048;-71
2023/10/01 06:22:49;;;;;;;16.15;13.77;;;;;;;;;;10350717;28;20083;-71
2023/10/01 06:27:47;;;;;;;20.52;13.40;;;;;;;;;;10325449;28;20052;-70
2023/10/01 06:32:43;;;;;;;16.90;13.05;;;;;;;;;;10318528;28;20106;-70
2023/10/01 06:37:45;;;;;;;17.80;13.32;;;;;;;;;;10327930;28;20127;-71
2023/10/01 06:42:42;;;;;;;;;;;;;;;;;;10322930;28;20040;-71
2023/10/01 06:47:39;;;;;;;20.48;14.10;;;;;;;;;;10347546;28;19924;-72
2023/10/01 06:52:41;;;;;;;20.17;15.73;;;;;;;;;;10339069;28;20052;-71
2023/10/01 06:57:38;;;;;;;20.35;13.65;;;;;;;;;;10343417;28;20063;-71
2023/10/01 07:02:36;;;;;;;17.83;14.65;;;;;;;;;;10337869;28;20058;-71
2023/10/01 07:07:35;;;;;;;20.70;13.77;;;;;;;;;;10344408;28;20076;-71
2023/10/01 07:12:32;;;;;;;19.88;13.30;;;;;;;;;;10336906;28;20084;-71
2023/10/01 07:17:28;;;;;;;23.15;13.15;;;;;;;;;;10349668;28;20052;-71
2023/10/01 07:22:31;;;;;;;21.40;14.00;;;;;;;;;;10338482;28;20053;-71
2023/10/01 07:27:27;;;;;;;18.90;13.50;;;;;;;;;;10345540;28;20135;-71
2023/10/01 07:32:25;;;;;;;22.52;14.65;;;;;;;;;;10346495;28;20508;-71
2023/10/01 07:37:31;;;;;;;21.40;13.20;;;;;;;;;;10340776;28;20398;-71
2023/10/01 07:42:28;;;;;;;16.90;11.95;;;;;;;;;;10330984;28;20672;-71
2023/10/01 07:47:31;;;;;;;20.00;12.75;;;;;;;;;;10342381;28;20508;-71
2023/10/01 07:52:28;;;;;;;20.20;12.30;;;;;;;;;;10349031;28;20063;-71
2023/10/01 07:57:28;;;;;;;16.80;12.52;;;;;;;;;;10343063;28;20067;-71
2023/10/01 08:02:28;;;;;;;20.58;12.82;;;;;;;;;;10337219;28;20048;-71
2023/10/01 08:07:30;;;;;;;18.05;11.90;;;;;;;;;;10332697;28;20101;-71
2023/10/01 08:12:56;;;;;;;;;;;;;;;;;;10331432;28;20578;-71
2023/10/01 08:17:47;;;;;;;18.33;11.95;;;;;;;;;;10327464;28;19955;-71
2023/10/01 08:22:43;;;;;;;20.35;11.90;;;;;;;;;;10336843;28;20102;-71
2023/10/01 08:33:18;;;;;;;18.33;11.77;;;;;;;;;;10341019;28;20067;-71
2023/10/01 08:38:15;;;;;;;14.65;10.38;;;;;;;;;;10322330;28;20071;-71
2023/10/01 08:43:16;;;;;;;12.55;10.60;;;;;;;;;;10325294;28;20130;-71
2023/10/01 08:48:17;;;;;;;14.50;10.50;;;;;;;;;;10337232;28;20048;-72
2023/10/01 08:53:16;;;;;;;11.18;9.23;;;;;;;;;;10338651;28;20058;-72
2023/10/01 09:03:26;;;;;;;13.77;9.40;;;;;;;;;;10332236;28;20068;-72
2023/10/01 09:08:29;;;;;;;16.50;10.50;;;;;;;;;;10337321;28;20421;-72
2023/10/01 09:13:30;;;;;;;12.40;9.55;;;;;;;;;;10339863;28;20044;-72
2023/10/01 09:18:27;;;;;;;14.33;8.97;;;;;;;;;;10350586;28;20044;-72
2023/10/01 09:23:49;;;;;;;14.73;9.43;;;;;;;;;;10332233;28;20059;-73
2023/10/01 09:28:41;;;;;;;14.40;9.40;;;;;;;;;;10345951;28;20462;-73
2023/10/01 09:33:39;;;;;;;11.38;8.95;;;;;;;;;;10347839;28;20060;-72
2023/10/01 09:38:57;;;;;;;11.80;9.00;;;;;;;;;;10327193;28;20555;-72
2023/10/01 09:43:58;;;;;;;18.42;9.43;;;;;;;;;;10331212;28;20066;-72
2023/10/01 09:49:00;;;;;;;16.50;9.50;;;;;;;;;;10335649;28;20056;-72
2023/10/01 09:54:01;;;;;;;18.60;9.73;;;;;;;;;;10332200;28;20050;-72
2023/10/01 09:59:03;;;;;;;21.77;10.75;;;;;;;;;;10332881;28;20056;-72
2023/10/01 10:04:04;;;;;;;17.23;10.90;;;;;;;;;;10342805;28;20473;-72
2023/10/01 10:09:04;;;;;;;18.33;11.23;;;;;;;;;;10331092;28;20068;-72
2023/10/01 10:14:01;;;;;;;20.98;11.30;;;;;;;;;;10334761;28;20042;-72
2023/10/01 10:19:13;;;;;;;14.38;10.13;;;;;;;;;;10335522;28;20072;-72
2023/10/01 10:24:17;;;;;;;20.15;10.18;;;;;;;;;;10330301;28;20051;-72
2023/10/01 10:29:14;;;;;;;15.25;9.68;;;;;;;;;;10314680;28;20040;-73
2023/10/01 10:34:24;;;;;;;16.77;9.60;;;;;;;;;;10322586;28;20114;-73
2023/10/01 10:40:02;;;;;;;20.88;9.82;;;;;;;;;;10333368;28;20143;-72
2023/10/01 10:45:21;;;;;;;17.20;9.45;;;;;;;;;;10251214;28;20044;-72
2023/10/01 10:50:18;;;;;;;14.25;8.93;;;;;;;;;;10330125;28;20655;-72
2023/10/01 10:55:18;;;;;;;16.67;9.20;;;;;;;;;;10334953;28;20147;-72
2023/10/01 11:00:27;;;;;;;14.52;7.78;;;;;;;;;;10333372;28;20052;-72
2023/10/01 11:05:49;;;;;;;13.68;8.05;;;;;;;;;;10337390;28;20135;-72
2023/10/01 11:10:47;;;;;;;12.93;8.17;;;;;;;;;;10334255;28;20056;-72
2023/10/01 11:15:45;;;;;;;15.73;8.20;;;;;;;;;;10337172;28;20075;-72
2023/10/01 11:20:45;;;;;;;14.55;8.23;;;;;;;;;;10335552;28;20123;-72
2023/10/01 11:25:47;;;;;;;12.50;8.20;;;;;;;;;;10329128;28;20056;-72
2023/10/01 11:30:44;;;;;;;16.90;8.33;;;;;;;;;;10319486;28;20056;-72
2023/10/01 11:35:40;;;;;;;16.45;8.35;;;;;;;;;;10331998;28;20056;-72
2023/10/01 11:46:18;;;;;;;20.70;10.57;;;;;;;;;;10340610;28;20044;-72
2023/10/01 11:51:26;;;;;;;17.30;10.63;;;;;;;;;;10336299;28;20049;-72
2023/10/01 11:56:23;;;;;;;20.00;12.18;;;;;;;;;;10330399;28;20052;-72
2023/10/01 12:01:19;;;;;;;22.27;13.55;;;;;;;;;;10336650;28;20048;-72
2023/10/01 12:06:33;;;;;;;17.88;12.57;;;;;;;;;;10346963;28;20044;-72
2023/10/01 12:11:31;;;;;;;22.83;14.23;;;;;;;;;;10323934;28;20064;-72
2023/10/01 12:16:29;;;;;;;16.60;13.05;;;;;;;;;;10339742;28;20048;-72
2023/10/01 12:21:26;;;;;;;19.20;14.18;;;;;;;;;;10349977;28;20535;-73
2023/10/01 12:31:23;;;;;;;26.40;14.80;;;;;;;;;;10343574;28;20055;-72
2023/10/01 12:36:31;;;;;;;18.00;14.65;;;;;;;;;;10338759;28;20139;-72
2023/10/01 12:41:29;;;;;;;20.58;14.60;;;;;;;;;;10329319;28;20051;-72
2023/10/01 12:46:26;;;;;;;15.50;13.90;;;;;;;;;;10349406;28;20071;-72
2023/10/01 12:51:32;;;;;;;18.25;13.93;;;;;;;;;;10343896;28;20055;-71
2023/10/01 12:57:02;;;;;;;15.52;13.93;;;;;;;;;;10334031;28;20526;-71
2023/10/01 13:02:00;;;;;;;17.15;15.45;;;;;;;;;;10331164;28;20048;-72
2023/10/01 13:07:03;;;;;;;17.33;15.68;;;;;;;;;;10351326;28;20453;-72
2023/10/01 13:12:10;;;;;;;16.30;14.70;;;;;;;;;;10342138;28;20094;-72
2023/10/01 13:17:19;;;;;;;17.23;15.63;;;;;;;;;;10339520;28;20052;-72
2023/10/01 13:22:18;;;;;;;16.50;15.18;;;;;;;;;;10320258;28;20111;-72
2023/10/01 13:27:17;;;;;;;18.00;15.15;;;;;;;;;;10325017;28;20131;-71
2023/10/01 13:32:16;;;;;;;17.92;14.93;;;;;;;;;;10342431;28;20075;-72
2023/10/01 13:37:26;;;;;;;17.40;15.68;;;;;;;;;;10339440;28;20050;-72
2023/10/01 14:08:44;;;;;;;19.13;17.30;;;;;;;;;;10339833;28;20080;-71
2023/10/01 14:13:43;;;;;;;20.17;18.08;;;;;;;;;;10343348;28;20123;-72
2023/10/01 14:18:54;;;;;;;19.42;17.58;;;;;;;;;;10335591;28;20055;-71
2023/10/01 14:23:51;;;;;;;18.20;16.23;;;;;;;;;;10333081;28;20056;-72
2023/10/01 14:28:49;;;;;;;22.95;18.55;;;;;;;;;;10327671;28;20056;-72
2023/10/01 14:33:46;;;;;;;20.38;17.00;;;;;;;;;;10328882;28;20044;-72
2023/10/01 14:38:42;;;;;;;21.83;16.77;;;;;;;;;;10306936;28;20048;-71
2023/10/01 14:43:48;;;;;;;27.23;17.92;;;;;;;;;;10334450;28;20048;-72
2023/10/01 14:48:48;;;;;;;23.55;18.77;;;;;;;;;;10396959;22;20154;-72
2023/10/01 14:53:52;;;;;;;21.02;17.98;;;;;;;;;;10394287;28;20060;-72
2023/10/01 14:58:51;;;;;;;28.10;20.02;;;;;;;;;;10369429;28;20083;-72
2023/10/01 15:03:53;;;;;;;23.48;17.77;;;;;;;;;;10358994;28;20110;-73
2023/10/01 15:08:58;;;;;;;22.00;17.90;;;;;;;;;;10363334;28;20044;-72
2023/10/01 15:13:57;;;;;;;22.10;16.77;;;;;;;;;;10361762;28;20051;-72
2023/10/01 15:19:00;;;;;;;56.42;29.20;;;;;;;;;;10368100;28;20109;-72
2023/10/01 15:24:00;;;;;;;25.70;17.65;;;;;;;;;;10367567;28;20098;-71
2023/10/01 15:28:57;;;;;;;21.45;16.48;;;;;;;;;;10377347;28;20056;-72
2023/10/01 15:34:00;;;;;;;26.73;18.02;;;;;;;;;;10364590;28;20059;-72
2023/10/01 15:38:56;;;;;;;24.60;17.95;;;;;;;;;;10340564;28;20419;-71
2023/10/01 15:43:53;;;;;;;21.17;17.35;;;;;;;;;;10367652;28;20439;-72
2023/10/01 15:48:49;;;;;;;24.00;17.58;;;;;;;;;;10361882;28;20507;-72
2023/10/01 15:53:46;;;;;;;25.60;18.95;;;;;;;;;;10359959;28;20478;-72
2023/10/01 15:58:49;;;;;;;20.90;18.15;;;;;;;;;;10365781;28;20492;-71
2023/10/01 16:03:52;;;;;;;23.23;19.10;;;;;;;;;;10345962;28;20068;-72
2023/10/01 16:08:49;;;;;;;20.85;18.60;;;;;;;;;;10361445;28;20087;-72
2023/10/01 16:13:53;;;;;;;21.02;18.48;;;;;;;;;;10343139;28;20472;-72
2023/10/01 16:18:51;;;;;;;21.17;17.63;;;;;;;;;;10361554;28;20503;-73
2023/10/01 16:23:53;;;;;;;21.50;18.83;;;;;;;;;;10343547;28;20466;-72
2023/10/01 16:28:53;;;;;;;21.00;17.45;;;;;;;;;;10367221;28;20051;-72
2023/10/01 16:33:59;;;;;;;20.45;16.77;;;;;;;;;;10362495;28;20626;-73
2023/10/01 16:38:58;;;;;;;24.67;17.17;;;;;;;;;;10358791;28;20485;-72
2023/10/01 16:43:56;;;;;;;23.08;16.88;;;;;;;;;;10357368;28;20052;-72
2023/10/01 16:48:58;;;;;;;20.27;15.45;;;;;;;;;;10358971;28;20048;-72
2023/10/01 16:53:59;;;;;;;22.88;15.52;;;;;;;;;;10359949;28;20078;-73
2023/10/01 16:58:56;;;;;;;17.52;14.90;;;;;;;;;;10359965;28;20098;-72
2023/10/01 17:04:08;;;;;;;26.20;15.10;;;;;;;;;;10354407;28;20458;-72
2023/10/01 17:09:11;;;;;;;18.48;15.13;;;;;;;;;;10358386;28;20131;-72
2023/10/01 17:14:14;;;;;;;18.15;13.98;;;;;;;;;;10359484;28;20056;-72
2023/10/01 17:19:11;;;;;;;18.77;15.95;;;;;;;;;;10363189;28;20159;-72
2023/10/01 17:24:14;;;;;;;18.35;13.52;;;;;;;;;;10366346;28;20081;-72
2023/10/01 17:29:19;;;;;;;;;;;;;;;;;;10372714;28;20052;-72
2023/10/01 17:34:23;;;;;;;19.83;14.82;;;;;;;;;;10369349;28;20010;-72
2023/10/01 17:39:20;;;;;;;18.02;13.80;;;;;;;;;;10335939;28;20044;-72
2023/10/01 17:44:23;;;;;;;17.88;14.20;;;;;;;;;;10360360;28;20055;-72
2023/10/01 17:49:26;;;;;;;22.83;15.18;;;;;;;;;;10366265;28;20070;-72
2023/10/01 17:54:27;;;;;;;22.38;14.32;;;;;;;;;;10338803;28;20062;-72
2023/10/01 17:59:29;;;;;;;21.38;15.25;;;;;;;;;;10356834;28;20044;-72
2023/10/01 18:04:35;;;;;;;17.58;15.50;;;;;;;;;;10357061;28;20774;-70
2023/10/01 18:09:33;;;;;;;20.17;15.40;;;;;;;;;;10361402;28;20074;-70
2023/10/01 18:14:33;;;;;;;21.20;17.20;;;;;;;;;;10362780;28;20084;-72
2023/10/01 18:19:33;;;;;;;22.95;17.73;;;;;;;;;;10368476;28;20040;-72
2023/10/01 18:24:30;;;;;;;18.08;16.15;;;;;;;;;;10362648;28;20044;-72
2023/10/01 18:29:27;;;;;;;20.40;16.30;;;;;;;;;;10359400;28;20423;-72
2023/10/01 18:34:25;;;;;;;20.55;15.23;;;;;;;;;;10359856;28;20119;-72
2023/10/01 18:39:32;;;;;;;21.88;16.20;;;;;;;;;;10359115;28;20039;-72
2023/10/01 18:44:29;;;;;;;19.58;16.67;;;;;;;;;;10360953;28;20139;-72
2023/10/01 18:49:26;;;;;;;18.55;16.52;;;;;;;;;;10368661;28;20505;-72
2023/10/01 18:54:26;;;;;;;19.80;16.80;;;;;;;;;;10351019;28;20074;-72
2023/10/01 18:59:26;;;;;;;19.40;17.38;;;;;;;;;;10365346;28;20045;-72
2023/10/01 19:04:24;;;;;;;20.27;16.75;;;;;;;;;;10366976;28;20130;-72
2023/10/01 19:09:21;;;;;;;22.40;17.67;;;;;;;;;;10355001;28;20160;-72
2023/10/01 19:14:17;;;;;;;18.85;16.80;;;;;;;;;;10368564;28;20063;-72
2023/10/01 19:19:18;;;;;;;18.52;16.60;;;;;;;;;;10368985;28;20526;-72
2023/10/01 19:24:16;;;;;;;21.17;17.02;;;;;;;;;;10371121;28;20466;-72
2023/10/01 19:29:13;;;;;;;19.88;16.63;;;;;;;;;;10361926;28;20051;-72
2023/10/01 19:34:10;;;;;;;22.45;18.05;;;;;;;;;;10357847;28;20072;-72
2023/10/01 19:39:19;;;;;;;21.30;17.80;;;;;;;;;;10360677;28;20427;-72
2023/10/01 19:44:16;;;;;;;18.38;16.58;;;;;;;;;;10364937;28;20072;-72
2023/10/01 19:49:15;;;;;;;20.80;16.70;;;;;;;;;;10358824;28;20044;-72
2023/10/01 19:54:12;;;;;;;21.10;17.75;;;;;;;;;;10359964;28;20040;-72
2023/10/01 19:59:13;;;;;;;19.08;16.92;;;;;;;;;;10360519;28;20135;-72
2023/10/01 20:04:10;;;;;;;20.25;17.58;;;;;;;;;;10363030;28;20544;-72
2023/10/01 20:09:23;;;;;;;21.58;16.88;;;;;;;;;;10360848;28;20056;-72
2023/10/01 20:14:19;;;;;;;18.17;16.23;;;;;;;;;;10360585;28;20094;-72
2023/10/01 20:19:24;;;;;;;20.52;17.63;;;;;;;;;;10379717;28;20094;-72
2023/10/01 20:24:22;;;;;;;19.13;17.23;;;;;;;;;;10368100;28;20040;-72
2023/10/01 20:29:20;;;;;;;21.02;17.60;;;;;;;;;;10356293;28;20059;-73
2023/10/01 20:34:20;;;;;;;21.15;17.38;;;;;;;;;;10353891;28;20044;-72
2023/10/01 20:39:50;;;;;;;19.75;17.73;;;;;;;;;;10359618;28;20588;-72
2023/10/01 20:44:45;;;;;;;18.58;16.48;;;;;;;;;;10353193;28;20067;-72
2023/10/01 20:49:43;;;;;;;19.93;17.03;;;;;;;;;;10349517;28;20708;-73
2023/10/01 20:54:46;;;;;;;19.05;16.90;;;;;;;;;;10351820;28;20603;-71
2023/10/01 20:59:42;;;;;;;25.27;17.15;;;;;;;;;;10336179;28;20094;-71
2023/10/01 21:04:41;;;;;;;19.27;17.27;;;;;;;;;;10363563;28;20069;-73
2023/10/01 21:09:40;;;;;;;17.55;15.82;;;;;;;;;;10369514;28;20062;-73
2023/10/01 21:14:36;;;;;;;19.05;16.35;;;;;;;;;;10354047;28;20121;-73
2023/10/01 21:19:34;;;;;;;19.95;17.08;;;;;;;;;;10370395;28;20526;-72
2023/10/01 21:24:33;;;;;;;19.13;17.13;;;;;;;;;;10356015;28;20066;-72
2023/10/01 21:29:35;;;;;;;23.50;18.08;;;;;;;;;;10357138;28;20050;-72
2023/10/01 21:34:38;;;;;;;22.73;16.38;;;;;;;;;;10355590;28;20067;-72
2023/10/01 21:39:38;;;;;;;19.45;16.92;;;;;;;;;;10368390;28;20519;-72
2023/10/01 21:44:41;;;;;;;20.05;18.05;;;;;;;;;;10356492;28;20058;-72
2023/10/01 21:49:43;;;;;;;19.05;17.08;;;;;;;;;;10358270;28;20521;-72
2023/10/01 21:54:39;;;;;;;22.15;16.75;;;;;;;;;;10358502;28;20627;-72
2023/10/01 21:59:36;;;;;;;23.33;17.38;;;;;;;;;;10350706;28;20503;-72
2023/10/01 22:04:34;;;;;;;21.73;17.58;;;;;;;;;;10358988;28;20062;-72
2023/10/01 22:09:30;;;;;;;21.30;19.10;;;;;;;;;;10349283;28;20466;-72
2023/10/01 22:14:37;;;;;;;19.65;17.63;;;;;;;;;;10357719;28;20048;-72
2023/10/01 22:19:42;;;;;;;19.50;16.73;;;;;;;;;;10363214;28;20293;-72
2023/10/01 22:24:40;;;;;;;19.95;17.35;;;;;;;;;;10354824;28;20052;-72
2023/10/01 22:29:37;;;;;;;20.15;17.75;;;;;;;;;;10362646;28;20740;-72
2023/10/01 22:34:34;;;;;;;21.73;17.42;;;;;;;;;;10362194;28;20080;-73
2023/10/01 22:39:36;;;;;;;20.25;17.85;;;;;;;;;;10357956;28;20048;-72
2023/10/01 22:44:33;;;;;;;21.73;17.08;;;;;;;;;;10357838;28;20502;-72
2023/10/01 22:49:30;;;;;;;25.95;19.02;;;;;;;;;;10362802;28;20071;-73
2023/10/01 22:54:26;;;;;;;21.58;17.45;;;;;;;;;;10333041;28;20091;-73
2023/10/01 22:59:23;;;;;;;20.85;17.42;;;;;;;;;;10351016;28;20503;-72
2023/10/01 23:04:22;;;;;;;21.02;16.73;;;;;;;;;;10361606;28;20072;-73
2023/10/01 23:09:19;;;;;;;21.65;17.08;;;;;;;;;;10351467;28;20052;-72
2023/10/01 23:14:16;;;;;;;20.15;16.35;;;;;;;;;;10359325;28;20044;-72
2023/10/01 23:19:34;;;;;;;22.00;16.67;;;;;;;;;;10348466;28;20098;-72
2023/10/01 23:24:49;;;;;;;21.33;15.63;;;;;;;;;;10367772;28;20066;-73
2023/10/01 23:29:45;;;;;;;22.30;15.70;;;;;;;;;;10377244;28;20090;-73
2023/10/01 23:34:43;;;;;;;20.88;15.43;;;;;;;;;;10384793;28;20056;-73
2023/10/01 23:39:45;;;;;;;21.00;14.35;;;;;;;;;;10367735;28;20472;-72
2023/10/01 23:45:04;;;;;;;24.47;15.63;;;;;;;;;;10371954;28;20047;-72
2023/10/01 23:55:32;;;;;;;23.50;15.27;;;;;;;;;;10361052;28;20102;-72
